createdAt,value
2022-11-22T00:00:24.091Z,93.27
2022-11-22T00:01:24.446Z,93.18
2022-11-22T00:02:24.901Z,93.75
2022-11-22T00:03:24.907Z,94.23
2022-11-22T00:04:25.837Z,94.56
2022-11-22T00:05:26.256Z,94.74
2022-11-22T00:06:26.736Z,95.22
2022-11-22T00:07:27.508Z,95.51
2022-11-22T00:08:27.719Z,96.26
2022-11-22T00:09:29.085Z,95.89
2022-11-22T00:10:29.966Z,96.17
2022-11-22T00:11:30.880Z,95.98
2022-11-22T00:12:31.802Z,96.74
2022-11-22T00:13:32.020Z,97.02
2022-11-22T00:14:32.227Z,97.12
2022-11-22T00:15:32.663Z,96.17
2022-11-22T00:16:33.855Z,96.36
2022-11-22T00:17:34.778Z,96.26
2022-11-22T00:18:34.966Z,96.74
2022-11-22T00:19:35.667Z,96.55
2022-11-22T00:20:35.591Z,97.5
2022-11-22T00:21:36.204Z,97.69
2022-11-22T00:22:42.889Z,98.16
2022-11-22T00:23:38.298Z,98.64
2022-11-22T00:24:38.273Z,99.49
2022-11-22T00:25:38.700Z,99.97
2022-11-22T00:26:39.328Z,98.83
2022-11-22T00:27:40.239Z,98.64
2022-11-22T00:28:40.574Z,97.78
2022-11-22T00:29:41.053Z,96.74
2022-11-22T00:30:40.958Z,96.64
2022-11-22T00:31:41.858Z,97.12
2022-11-22T00:32:43.099Z,97.6
2022-11-22T00:33:43.326Z,97.31
2022-11-22T00:34:43.518Z,97.02
2022-11-22T00:35:44.544Z,96.74
2022-11-22T00:36:44.443Z,95.98
2022-11-22T00:37:45.492Z,96.74
2022-11-22T00:38:46.405Z,97.5
2022-11-22T00:39:46.949Z,97.6
2022-11-22T00:40:47.135Z,97.41
2022-11-22T00:41:47.327Z,97.88
2022-11-22T00:42:47.944Z,99.02
2022-11-22T00:43:49.134Z,98.54
2022-11-22T00:44:49.755Z,98.92
2022-11-22T00:45:50.170Z,99.97
2022-11-22T00:46:51.359Z,99.99
2022-11-22T00:47:51.543Z,99.99
2022-11-22T00:48:51.882Z,99.99
2022-11-22T00:49:52.364Z,99.99
2022-11-22T00:50:52.994Z,99.99
2022-11-22T00:51:53.897Z,99.99
2022-11-22T00:52:54.122Z,99.99
2022-11-22T00:53:54.014Z,99.99
2022-11-22T00:55:00.277Z,99.99
2022-11-22T00:55:56.055Z,99.99
2022-11-22T00:56:56.251Z,99.99
2022-11-22T00:57:56.460Z,99.99
2022-11-22T00:58:57.069Z,99.99
2022-11-22T00:59:58.000Z,99.99
2022-11-22T01:01:02.333Z,99.99
2022-11-22T01:01:58.557Z,99.99
2022-11-22T01:02:59.768Z,99.99
2022-11-22T01:03:59.952Z,99.99
2022-11-22T01:05:01.167Z,99.99
2022-11-22T01:06:01.582Z,99.99
2022-11-22T01:07:02.243Z,99.99
2022-11-22T01:08:03.132Z,99.99
2022-11-22T01:09:04.018Z,99.99
2022-11-22T01:10:04.545Z,99.99
2022-11-22T01:11:05.156Z,99.99
2022-11-22T01:12:06.070Z,99.99
2022-11-22T01:13:06.673Z,99.99
2022-11-22T01:14:07.570Z,99.99
2022-11-22T01:15:08.496Z,99.99
2022-11-22T01:16:08.488Z,99.99
2022-11-22T01:17:09.094Z,99.99
2022-11-22T01:18:09.730Z,99.99
2022-11-22T01:19:10.935Z,99.99
2022-11-22T01:20:11.852Z,99.99
2022-11-22T01:21:11.786Z,99.99
2022-11-22T01:22:12.583Z,99.99
2022-11-22T01:23:13.114Z,99.99
2022-11-22T01:24:13.723Z,99.99
2022-11-22T01:25:14.260Z,99.99
2022-11-22T01:26:14.669Z,99.99
2022-11-22T01:27:15.155Z,99.99
2022-11-22T01:28:15.068Z,99.99
2022-11-22T01:29:15.988Z,99.99
2022-11-22T01:30:16.437Z,99.99
2022-11-22T01:31:16.420Z,99.99
2022-11-22T01:32:17.605Z,99.99
2022-11-22T01:33:17.814Z,99.99
2022-11-22T01:34:18.424Z,99.99
2022-11-22T01:35:19.056Z,99.99
2022-11-22T01:36:19.671Z,99.99
2022-11-22T01:37:20.292Z,99.99
2022-11-22T01:38:21.235Z,99.99
2022-11-22T01:39:21.703Z,99.99
2022-11-22T01:40:22.044Z,99.99
2022-11-22T01:41:22.527Z,99.99
2022-11-22T01:42:23.432Z,99.99
2022-11-22T01:43:23.365Z,99.99
2022-11-22T01:44:24.265Z,99.99
2022-11-22T01:45:24.880Z,99.99
2022-11-22T01:46:25.584Z,99.99
2022-11-22T01:47:26.179Z,99.99
2022-11-22T01:48:27.360Z,99.99
2022-11-22T01:49:28.319Z,99.99
2022-11-22T01:50:29.101Z,99.99
2022-11-22T01:51:30.005Z,99.99
2022-11-22T01:52:30.894Z,99.99
2022-11-22T01:53:31.848Z,99.99
2022-11-22T01:54:32.030Z,99.99
2022-11-22T01:55:32.571Z,99.99
2022-11-22T01:56:32.877Z,99.99
2022-11-22T01:57:33.061Z,99.99
2022-11-22T01:58:32.963Z,99.99
2022-11-22T01:59:34.591Z,99.99
2022-11-22T02:00:35.201Z,99.99
2022-11-22T02:01:35.737Z,99.99
2022-11-22T02:02:36.332Z,99.99
2022-11-22T02:03:36.940Z,99.99
2022-11-22T02:04:37.861Z,99.99
2022-11-22T02:05:38.355Z,99.99
2022-11-22T02:06:39.077Z,99.99
2022-11-22T02:07:39.850Z,99.99
2022-11-22T02:08:40.257Z,99.99
2022-11-22T02:09:41.136Z,99.99
2022-11-22T02:10:41.376Z,99.99
2022-11-22T02:11:42.562Z,99.99
2022-11-22T02:12:42.756Z,99.99
2022-11-22T02:13:42.959Z,99.99
2022-11-22T02:14:43.881Z,99.99
2022-11-22T02:15:44.811Z,99.99
2022-11-22T02:16:45.557Z,99.99
2022-11-22T02:17:46.469Z,99.99
2022-11-22T02:18:46.953Z,99.99
2022-11-22T02:19:47.579Z,99.99
2022-11-22T02:20:47.484Z,99.99
2022-11-22T02:21:48.103Z,99.99
2022-11-22T02:22:48.729Z,99.99
2022-11-22T02:23:49.718Z,99.99
2022-11-22T02:24:50.331Z,99.99
2022-11-22T02:25:50.582Z,99.99
2022-11-22T02:26:50.853Z,99.99
2022-11-22T02:27:51.763Z,99.99
2022-11-22T02:28:52.714Z,99.99
2022-11-22T02:29:52.923Z,99.99
2022-11-22T02:30:53.817Z,99.99
2022-11-22T02:31:54.156Z,99.99
2022-11-22T02:32:54.358Z,99.99
2022-11-22T02:33:58.814Z,99.99
2022-11-22T02:34:54.378Z,99.99
2022-11-22T02:35:55.015Z,99.99
2022-11-22T02:36:56.022Z,99.99
2022-11-22T02:37:56.672Z,99.99
2022-11-22T02:38:57.355Z,99.99
2022-11-22T02:39:57.253Z,99.99
2022-11-22T02:40:57.804Z,99.99
2022-11-22T02:41:57.998Z,99.99
2022-11-22T02:42:58.891Z,99.99
2022-11-22T02:43:59.514Z,99.99
2022-11-22T02:44:59.710Z,99.99
2022-11-22T02:46:00.644Z,99.99
2022-11-22T02:47:01.639Z,99.99
2022-11-22T02:48:02.251Z,99.99
2022-11-22T02:49:02.870Z,99.99
2022-11-22T02:50:03.489Z,99.99
2022-11-22T02:51:04.125Z,99.99
2022-11-22T02:52:04.743Z,99.99
2022-11-22T02:53:04.661Z,99.99
2022-11-22T02:54:05.614Z,99.99
2022-11-22T02:55:05.797Z,99.99
2022-11-22T02:56:06.057Z,99.99
2022-11-22T02:57:06.567Z,99.99
2022-11-22T02:58:07.052Z,99.99
2022-11-22T02:59:07.257Z,99.99
2022-11-22T03:00:07.158Z,99.99
2022-11-22T03:01:08.486Z,99.99
2022-11-22T03:02:09.223Z,99.99
2022-11-22T03:03:09.132Z,99.99
2022-11-22T03:04:09.739Z,99.99
2022-11-22T03:05:10.216Z,99.99
2022-11-22T03:06:10.434Z,99.99
2022-11-22T03:07:11.158Z,99.99
2022-11-22T03:08:11.755Z,99.99
2022-11-22T03:09:11.989Z,99.99
2022-11-22T03:10:12.515Z,99.99
2022-11-22T03:11:12.762Z,99.99
2022-11-22T03:12:12.650Z,99.99
2022-11-22T03:13:13.555Z,99.99
2022-11-22T03:14:14.182Z,99.99
2022-11-22T03:15:15.090Z,99.99
2022-11-22T03:16:15.281Z,99.99
2022-11-22T03:17:16.009Z,99.99
2022-11-22T03:18:16.194Z,99.99
2022-11-22T03:19:16.815Z,99.99
2022-11-22T03:20:18.005Z,99.99
2022-11-22T03:21:18.636Z,99.99
2022-11-22T03:22:19.141Z,99.99
2022-11-22T03:23:19.062Z,99.99
2022-11-22T03:24:20.338Z,99.99
2022-11-22T03:25:20.554Z,99.99
2022-11-22T03:26:20.817Z,99.99
2022-11-22T03:27:21.503Z,99.99
2022-11-22T03:28:22.424Z,99.99
2022-11-22T03:29:22.614Z,99.99
2022-11-22T03:30:22.836Z,99.99
2022-11-22T03:31:23.744Z,99.99
2022-11-22T03:32:24.781Z,99.99
2022-11-22T03:33:24.679Z,99.99
2022-11-22T03:34:25.592Z,99.99
2022-11-22T03:35:26.209Z,99.99
2022-11-22T03:36:27.401Z,99.99
2022-11-22T03:37:28.161Z,99.99
2022-11-22T03:38:29.086Z,99.99
2022-11-22T03:39:30.313Z,99.99
2022-11-22T03:40:30.585Z,99.99
2022-11-22T03:41:31.839Z,99.99
2022-11-22T03:42:32.070Z,99.99
2022-11-22T03:43:32.252Z,99.99
2022-11-22T03:44:32.741Z,99.99
2022-11-22T03:45:33.366Z,99.99
2022-11-22T03:46:34.573Z,99.99
2022-11-22T03:47:35.604Z,99.99
2022-11-22T03:48:35.793Z,99.99
2022-11-22T03:49:36.391Z,99.99
2022-11-22T03:50:36.321Z,99.99
2022-11-22T03:51:36.930Z,99.99
2022-11-22T03:52:37.545Z,99.99
2022-11-22T03:53:38.461Z,99.99
2022-11-22T03:54:39.144Z,99.99
2022-11-22T03:55:39.748Z,99.99
2022-11-22T03:56:39.978Z,99.99
2022-11-22T03:57:40.726Z,99.99
2022-11-22T03:58:41.647Z,99.99
2022-11-22T03:59:42.389Z,99.99
2022-11-22T04:00:43.600Z,99.99
2022-11-22T04:01:43.923Z,99.99
2022-11-22T04:02:44.470Z,99.99
2022-11-22T04:03:45.385Z,99.99
2022-11-22T04:04:45.286Z,99.99
2022-11-22T04:05:45.789Z,99.99
2022-11-22T04:06:46.699Z,99.99
2022-11-22T04:07:47.883Z,99.99
2022-11-22T04:08:48.331Z,99.99
2022-11-22T04:09:49.262Z,99.99
2022-11-22T04:10:50.173Z,99.99
2022-11-22T04:11:50.113Z,99.99
2022-11-22T04:12:51.037Z,99.99
2022-11-22T04:13:51.517Z,99.99
2022-11-22T04:14:51.429Z,99.99
2022-11-22T04:15:51.915Z,99.99
2022-11-22T04:16:52.133Z,99.99
2022-11-22T04:17:53.137Z,99.99
2022-11-22T04:18:53.350Z,99.99
2022-11-22T04:19:54.262Z,99.99
2022-11-22T04:20:54.871Z,99.99
2022-11-22T04:21:55.355Z,99.99
2022-11-22T04:22:56.265Z,99.99
2022-11-22T04:23:56.458Z,99.99
2022-11-22T04:24:56.731Z,99.99
2022-11-22T04:25:57.616Z,99.99
2022-11-22T04:26:57.900Z,99.99
2022-11-22T04:27:58.359Z,99.99
2022-11-22T04:29:15.155Z,99.99
2022-11-22T04:29:59.363Z,99.99
2022-11-22T04:31:00.267Z,99.99
2022-11-22T04:32:00.878Z,99.99
2022-11-22T04:33:01.607Z,99.99
2022-11-22T04:34:01.757Z,99.99
2022-11-22T04:35:02.397Z,99.99
2022-11-22T04:36:02.613Z,99.99
2022-11-22T04:37:03.538Z,99.99
2022-11-22T04:38:03.828Z,99.99
2022-11-22T04:39:04.016Z,99.99
2022-11-22T04:40:04.973Z,99.99
2022-11-22T04:41:04.886Z,99.99
2022-11-22T04:42:05.134Z,99.99
2022-11-22T04:43:05.766Z,99.99
2022-11-22T04:44:06.388Z,99.99
2022-11-22T04:45:06.722Z,99.99
2022-11-22T04:46:06.904Z,99.99
2022-11-22T04:47:07.211Z,99.99
2022-11-22T04:48:07.598Z,99.99
2022-11-22T04:49:07.913Z,99.99
2022-11-22T04:50:08.517Z,99.99
2022-11-22T04:51:09.162Z,99.99
2022-11-22T04:52:09.071Z,99.99
2022-11-22T04:53:09.263Z,99.99
2022-11-22T04:54:09.888Z,99.99
2022-11-22T04:55:10.170Z,99.99
2022-11-22T04:56:10.346Z,99.99
2022-11-22T04:57:10.612Z,99.99
2022-11-22T04:58:11.343Z,99.99
2022-11-22T04:59:12.252Z,99.99
2022-11-22T05:00:12.158Z,99.99
2022-11-22T05:01:13.537Z,99.99
2022-11-22T05:02:13.990Z,99.99
2022-11-22T05:03:15.187Z,99.99
2022-11-22T05:04:15.366Z,99.99
2022-11-22T05:05:16.268Z,99.99
2022-11-22T05:06:16.879Z,99.99
2022-11-22T05:07:17.270Z,99.99
2022-11-22T05:08:17.593Z,99.99
2022-11-22T05:09:18.201Z,99.99
2022-11-22T05:10:22.871Z,99.99
2022-11-22T05:11:18.703Z,99.99
2022-11-22T05:12:19.659Z,99.99
2022-11-22T05:13:20.617Z,99.99
2022-11-22T05:14:21.243Z,99.99
2022-11-22T05:15:22.152Z,99.99
2022-11-22T05:16:22.345Z,99.99
2022-11-22T05:17:22.830Z,99.99
2022-11-22T05:18:22.849Z,99.99
2022-11-22T05:19:23.456Z,99.99
2022-11-22T05:20:24.027Z,99.99
2022-11-22T05:21:24.646Z,99.99
2022-11-22T05:22:24.851Z,99.99
2022-11-22T05:23:25.337Z,99.99
2022-11-22T05:24:25.951Z,99.99
2022-11-22T05:25:31.195Z,99.99
2022-11-22T05:26:27.802Z,99.99
2022-11-22T05:27:28.330Z,99.99
2022-11-22T05:28:28.731Z,99.99
2022-11-22T05:29:30.202Z,99.99
2022-11-22T05:30:30.591Z,99.99
2022-11-22T05:31:30.777Z,99.99
2022-11-22T05:32:30.993Z,99.99
2022-11-22T05:33:32.306Z,99.99
2022-11-22T05:34:32.945Z,99.99
2022-11-22T05:35:33.882Z,99.99
2022-11-22T05:36:34.075Z,99.99
2022-11-22T05:37:34.994Z,99.99
2022-11-22T05:38:35.329Z,99.99
2022-11-22T05:39:36.219Z,99.99
2022-11-22T05:40:36.189Z,99.99
2022-11-22T05:41:36.364Z,99.99
2022-11-22T05:42:36.612Z,99.99
2022-11-22T05:43:36.807Z,99.99
2022-11-22T05:44:37.737Z,99.99
2022-11-22T05:45:37.930Z,99.99
2022-11-22T05:46:38.558Z,99.99
2022-11-22T05:47:39.175Z,99.99
2022-11-22T05:48:39.590Z,99.99
2022-11-22T05:49:39.484Z,99.99
2022-11-22T05:50:39.671Z,99.99
2022-11-22T05:51:40.522Z,99.99
2022-11-22T05:52:41.163Z,99.99
2022-11-22T05:53:41.648Z,99.99
2022-11-22T05:54:42.271Z,99.99
2022-11-22T05:55:43.205Z,99.99
2022-11-22T05:56:43.389Z,99.99
2022-11-22T05:57:43.910Z,99.99
2022-11-22T05:58:44.640Z,99.99
2022-11-22T05:59:49.328Z,99.99
2022-11-22T06:00:45.945Z,99.99
2022-11-22T06:01:46.959Z,99.99
2022-11-22T06:02:47.642Z,99.99
2022-11-22T06:03:48.532Z,99.99
2022-11-22T06:04:48.719Z,99.99
2022-11-22T06:05:49.612Z,99.99
2022-11-22T06:06:50.821Z,99.99
2022-11-22T06:07:51.489Z,99.99
2022-11-22T06:08:52.175Z,99.99
2022-11-22T06:09:52.077Z,99.99
2022-11-22T06:10:53.336Z,99.99
2022-11-22T06:11:53.649Z,99.99
2022-11-22T06:12:54.607Z,99.99
2022-11-22T06:13:55.504Z,99.99
2022-11-22T06:14:56.492Z,99.99
2022-11-22T06:15:57.106Z,99.99
2022-11-22T06:16:57.314Z,99.99
2022-11-22T06:17:57.504Z,99.99
2022-11-22T06:18:58.565Z,99.99
2022-11-22T06:20:02.759Z,99.99
2022-11-22T06:20:58.976Z,99.99
2022-11-22T06:21:58.869Z,99.99
2022-11-22T06:22:59.827Z,99.99
2022-11-22T06:24:00.542Z,99.99
2022-11-22T06:25:00.738Z,99.99
2022-11-22T06:26:00.987Z,99.99
2022-11-22T06:27:01.461Z,99.99
2022-11-22T06:28:01.989Z,99.99
2022-11-22T06:29:02.988Z,99.99
2022-11-22T06:30:03.226Z,99.99
2022-11-22T06:31:03.440Z,99.99
2022-11-22T06:32:08.812Z,99.99
2022-11-22T06:33:03.746Z,99.99
2022-11-22T06:34:04.037Z,99.99
2022-11-22T06:35:04.950Z,99.99
2022-11-22T06:36:05.862Z,99.99
2022-11-22T06:37:06.485Z,99.99
2022-11-22T06:38:06.723Z,99.99
2022-11-22T06:39:07.439Z,99.99
2022-11-22T06:40:08.041Z,99.99
2022-11-22T06:41:09.002Z,99.99
2022-11-22T06:42:09.197Z,99.99
2022-11-22T06:43:10.458Z,99.99
2022-11-22T06:44:11.366Z,99.99
2022-11-22T06:45:11.280Z,99.99
2022-11-22T06:46:11.908Z,99.99
2022-11-22T06:47:12.825Z,99.99
2022-11-22T06:48:13.015Z,99.99
2022-11-22T06:49:13.717Z,99.99
2022-11-22T06:50:18.857Z,99.99
2022-11-22T06:51:14.583Z,99.99
2022-11-22T06:52:15.472Z,99.99
2022-11-22T06:53:50.056Z,99.99
2022-11-22T06:54:16.767Z,99.99
2022-11-22T06:55:50.398Z,99.99
2022-11-22T06:56:17.176Z,99.99
2022-11-22T06:57:17.076Z,99.99
2022-11-22T06:58:18.339Z,99.99
2022-11-22T06:59:18.952Z,99.99
2022-11-22T07:00:18.955Z,99.99
2022-11-22T07:01:20.476Z,99.99
2022-11-22T07:02:20.229Z,99.99
2022-11-22T07:03:20.902Z,99.99
2022-11-22T07:04:21.797Z,99.99
2022-11-22T07:05:31.436Z,99.99
2022-11-22T07:06:23.055Z,99.99
2022-11-22T07:07:23.835Z,99.99
2022-11-22T07:08:24.743Z,99.99
2022-11-22T07:09:25.455Z,99.99
2022-11-22T07:10:26.195Z,99.99
2022-11-22T07:11:26.734Z,99.99
2022-11-22T07:12:26.625Z,99.99
2022-11-22T07:13:27.257Z,99.99
2022-11-22T07:14:27.165Z,99.99
2022-11-22T07:15:28.347Z,99.99
2022-11-22T07:16:28.541Z,99.99
2022-11-22T07:17:28.438Z,99.99
2022-11-22T07:18:29.343Z,99.99
2022-11-22T07:19:29.638Z,99.99
2022-11-22T07:20:30.551Z,99.99
2022-11-22T07:21:30.738Z,99.99
2022-11-22T07:22:31.233Z,99.99
2022-11-22T07:23:32.133Z,99.99
2022-11-22T07:24:33.062Z,99.99
2022-11-22T07:25:32.958Z,99.99
2022-11-22T07:26:34.398Z,99.99
2022-11-22T07:27:34.301Z,99.99
2022-11-22T07:28:34.561Z,99.99
2022-11-22T07:29:36.297Z,99.99
2022-11-22T07:30:39.825Z,99.99
2022-11-22T07:31:37.095Z,99.99
2022-11-22T07:32:38.014Z,99.99
2022-11-22T07:33:38.230Z,99.99
2022-11-22T07:34:38.948Z,99.99
2022-11-22T07:35:39.839Z,99.99
2022-11-22T07:36:39.760Z,99.99
2022-11-22T07:37:40.836Z,99.99
2022-11-22T07:38:41.754Z,99.99
2022-11-22T07:39:43.114Z,99.99
2022-11-22T07:40:43.626Z,99.99
2022-11-22T07:41:43.883Z,99.99
2022-11-22T07:42:43.777Z,99.99
2022-11-22T07:43:44.353Z,99.99
2022-11-22T07:44:45.306Z,99.99
2022-11-22T07:45:46.201Z,99.99
2022-11-22T07:46:47.110Z,99.99
2022-11-22T07:47:48.003Z,99.99
2022-11-22T07:48:48.489Z,99.99
2022-11-22T07:49:49.086Z,99.99
2022-11-22T07:50:49.716Z,99.99
2022-11-22T07:51:50.204Z,99.99
2022-11-22T07:52:51.114Z,99.99
2022-11-22T07:53:51.350Z,99.99
2022-11-22T07:54:51.956Z,99.99
2022-11-22T07:55:52.593Z,99.99
2022-11-22T07:56:53.787Z,99.99
2022-11-22T07:57:53.963Z,99.99
2022-11-22T07:58:54.854Z,99.99
2022-11-22T07:59:55.085Z,99.99
2022-11-22T08:00:55.299Z,99.99
2022-11-22T08:01:55.570Z,99.99
2022-11-22T08:02:56.502Z,99.99
2022-11-22T08:03:57.436Z,99.99
2022-11-22T08:04:58.070Z,99.99
2022-11-22T08:05:59.264Z,99.99
2022-11-22T08:06:59.472Z,99.99
2022-11-22T08:08:00.614Z,99.99
2022-11-22T08:09:07.285Z,99.99
2022-11-22T08:10:01.589Z,99.99
2022-11-22T08:11:01.787Z,99.99
2022-11-22T08:12:02.239Z,99.99
2022-11-22T08:13:02.424Z,99.99
2022-11-22T08:14:03.190Z,99.99
2022-11-22T08:15:03.386Z,99.99
2022-11-22T08:16:10.348Z,99.99
2022-11-22T08:17:04.332Z,99.99
2022-11-22T08:18:05.544Z,99.99
2022-11-22T08:19:05.879Z,99.99
2022-11-22T08:20:06.386Z,99.99
2022-11-22T08:21:07.019Z,99.99
2022-11-22T08:22:07.257Z,99.99
2022-11-22T08:23:07.513Z,99.99
2022-11-22T08:24:07.721Z,99.99
2022-11-22T08:25:07.941Z,99.99
2022-11-22T08:26:07.882Z,99.99
2022-11-22T08:27:08.736Z,99.99
2022-11-22T08:28:08.945Z,99.99
2022-11-22T08:29:13.823Z,99.99
2022-11-22T08:30:10.003Z,99.99
2022-11-22T08:31:10.901Z,99.99
2022-11-22T08:32:12.122Z,99.99
2022-11-22T08:33:13.088Z,99.99
2022-11-22T08:34:12.998Z,99.99
2022-11-22T08:35:13.724Z,99.99
2022-11-22T08:36:14.412Z,99.99
2022-11-22T08:37:14.605Z,99.99
2022-11-22T08:38:15.544Z,99.99
2022-11-22T08:39:16.480Z,99.99
2022-11-22T08:40:17.109Z,99.99
2022-11-22T08:41:18.028Z,99.99
2022-11-22T08:42:18.463Z,99.99
2022-11-22T08:43:18.944Z,99.99
2022-11-22T08:44:19.852Z,99.99
2022-11-22T08:45:20.108Z,99.99
2022-11-22T08:46:20.744Z,99.99
2022-11-22T08:47:21.655Z,99.99
2022-11-22T08:48:27.153Z,99.99
2022-11-22T08:49:22.062Z,99.99
2022-11-22T08:50:22.794Z,99.99
2022-11-22T08:51:23.001Z,99.99
2022-11-22T08:52:23.898Z,99.99
2022-11-22T08:53:24.541Z,99.99
2022-11-22T08:54:25.169Z,99.99
2022-11-22T08:55:25.709Z,99.99
2022-11-22T08:56:26.197Z,99.99
2022-11-22T08:57:26.931Z,99.99
2022-11-22T08:58:27.109Z,99.99
2022-11-22T08:59:28.055Z,99.99
2022-11-22T09:00:33.275Z,99.99
2022-11-22T09:01:29.572Z,99.99
2022-11-22T09:02:29.838Z,99.99
2022-11-22T09:03:30.033Z,99.99
2022-11-22T09:04:31.271Z,99.99
2022-11-22T09:05:31.437Z,99.99
2022-11-22T09:08:32.637Z,99.99
2022-11-22T09:09:44.350Z,99.99
2022-11-22T09:10:44.075Z,99.99
2022-11-22T09:11:45.001Z,99.99
2022-11-22T09:12:45.669Z,99.99
2022-11-22T09:13:45.575Z,99.99
2022-11-22T09:14:46.419Z,99.99
2022-11-22T09:15:47.042Z,99.99
2022-11-22T09:16:47.363Z,99.99
2022-11-22T09:17:48.261Z,99.99
2022-11-22T09:18:48.585Z,99.99
2022-11-22T09:19:49.528Z,99.99
2022-11-22T09:20:50.028Z,99.99
2022-11-22T09:21:50.654Z,99.99
2022-11-22T09:22:51.181Z,99.99
2022-11-22T09:23:51.122Z,99.99
2022-11-22T09:24:52.351Z,99.99
2022-11-22T09:25:53.279Z,99.99
2022-11-22T09:26:53.547Z,99.99
2022-11-22T09:27:54.727Z,99.99
2022-11-22T09:28:54.623Z,99.99
2022-11-22T09:29:55.802Z,99.99
2022-11-22T09:30:56.323Z,99.99
2022-11-22T09:31:56.544Z,99.99
2022-11-22T09:32:56.841Z,99.99
2022-11-22T09:33:57.602Z,99.99
2022-11-22T09:34:58.718Z,99.99
2022-11-22T09:35:59.109Z,99.99
2022-11-22T09:36:59.727Z,99.99
2022-11-22T09:38:00.949Z,99.99
2022-11-22T09:39:01.311Z,99.99
2022-11-22T09:40:01.511Z,99.99
2022-11-22T09:41:01.422Z,99.99
2022-11-22T09:42:01.925Z,99.99
2022-11-22T09:43:02.672Z,99.99
2022-11-22T09:44:02.866Z,99.99
2022-11-22T09:45:03.757Z,99.99
2022-11-22T09:46:03.942Z,99.99
2022-11-22T09:47:04.591Z,99.99
2022-11-22T09:48:09.834Z,99.99
2022-11-22T09:49:06.374Z,99.99
2022-11-22T09:50:07.289Z,99.99
2022-11-22T09:51:07.492Z,99.99
2022-11-22T09:52:08.118Z,99.99
2022-11-22T09:53:08.168Z,99.99
2022-11-22T09:54:09.373Z,99.99
2022-11-22T09:55:09.996Z,99.99
2022-11-22T09:56:11.311Z,99.99
2022-11-22T09:57:11.527Z,99.99
2022-11-22T09:58:12.281Z,99.99
2022-11-22T09:59:12.364Z,99.99
2022-11-22T10:00:12.888Z,99.99
2022-11-22T10:01:14.148Z,99.99
2022-11-22T10:02:23.665Z,99.99
2022-11-22T10:03:25.969Z,99.99
2022-11-22T10:04:27.473Z,99.99
2022-11-22T10:05:27.545Z,99.99
2022-11-22T10:06:28.575Z,99.99
2022-11-22T10:07:29.264Z,99.99
2022-11-22T10:08:29.295Z,99.99
2022-11-22T10:09:30.695Z,99.99
2022-11-22T10:10:31.602Z,99.99
2022-11-22T10:11:37.059Z,99.99
2022-11-22T10:12:32.647Z,99.99
2022-11-22T10:13:33.639Z,99.99
2022-11-22T10:14:33.560Z,99.99
2022-11-22T10:15:34.392Z,99.99
2022-11-22T10:16:34.893Z,99.99
2022-11-22T10:17:35.421Z,99.99
2022-11-22T10:18:36.434Z,99.99
2022-11-22T10:19:37.780Z,99.99
2022-11-22T10:20:38.012Z,99.99
2022-11-22T10:21:38.327Z,99.99
2022-11-22T10:22:38.692Z,99.99
2022-11-22T10:23:39.220Z,99.99
2022-11-22T10:24:39.562Z,99.99
2022-11-22T10:25:40.761Z,99.99
2022-11-22T10:26:40.681Z,99.99
2022-11-22T10:27:40.870Z,99.99
2022-11-22T10:28:41.646Z,99.99
2022-11-22T10:29:41.561Z,99.99
2022-11-22T10:30:42.403Z,99.99
2022-11-22T10:31:42.609Z,99.99
2022-11-22T10:32:43.525Z,99.99
2022-11-22T10:33:49.685Z,99.99
2022-11-22T10:34:43.972Z,99.99
2022-11-22T10:35:43.961Z,99.99
2022-11-22T10:36:45.002Z,99.99
2022-11-22T10:37:44.920Z,99.99
2022-11-22T10:38:45.817Z,99.99
2022-11-22T10:39:46.874Z,99.99
2022-11-22T10:40:46.781Z,99.99
2022-11-22T10:41:47.451Z,99.99
2022-11-22T10:42:47.967Z,99.99
2022-11-22T10:43:48.719Z,99.99
2022-11-22T10:44:48.628Z,99.99
2022-11-22T10:45:49.197Z,99.99
2022-11-22T10:46:52.340Z,99.99
2022-11-22T10:47:50.218Z,99.99
2022-11-22T10:48:50.451Z,99.99
2022-11-22T10:49:50.683Z,99.99
2022-11-22T10:50:51.296Z,99.99
2022-11-22T10:51:51.960Z,99.99
2022-11-22T10:52:52.180Z,99.99
2022-11-22T10:53:52.912Z,99.99
2022-11-22T10:54:52.832Z,99.99
2022-11-22T10:55:54.027Z,99.99
2022-11-22T10:56:54.228Z,99.99
2022-11-22T10:57:54.444Z,99.99
2022-11-22T10:58:55.399Z,99.99
2022-11-22T10:59:55.625Z,99.99
2022-11-22T11:00:56.020Z,99.99
2022-11-22T11:01:57.185Z,99.99
2022-11-22T11:02:57.677Z,99.99
2022-11-22T11:03:58.283Z,99.99
2022-11-22T11:04:58.546Z,99.99
2022-11-22T11:06:49.659Z,99.99
2022-11-22T11:07:28.626Z,99.99
2022-11-22T11:10:40.830Z,99.99
2022-11-22T11:11:41.650Z,99.99
2022-11-22T11:12:42.277Z,99.99
2022-11-22T11:13:42.918Z,99.99
2022-11-22T11:14:44.441Z,99.99
2022-11-22T11:15:45.003Z,99.99
2022-11-22T11:16:45.759Z,99.99
2022-11-22T11:17:46.979Z,99.99
2022-11-22T11:18:47.900Z,99.99
2022-11-22T11:19:48.390Z,99.99
2022-11-22T11:20:48.305Z,99.99
2022-11-22T11:21:48.802Z,99.99
2022-11-22T11:23:18.890Z,99.99
2022-11-22T11:23:49.235Z,99.99
2022-11-22T11:24:49.724Z,99.99
2022-11-22T11:25:50.256Z,99.99
2022-11-22T11:26:51.158Z,99.99
2022-11-22T11:27:52.079Z,99.99
2022-11-22T11:28:53.005Z,99.99
2022-11-22T11:29:53.492Z,99.99
2022-11-22T11:30:53.725Z,99.99
2022-11-22T11:31:54.556Z,99.99
2022-11-22T11:32:54.472Z,99.99
2022-11-22T11:33:55.090Z,99.99
2022-11-22T11:34:55.717Z,99.99
2022-11-22T11:35:56.150Z,99.99
2022-11-22T11:36:56.376Z,99.99
2022-11-22T11:37:57.506Z,99.99
2022-11-22T11:38:58.131Z,99.99
2022-11-22T11:39:58.769Z,99.99
2022-11-22T11:40:59.982Z,99.99
2022-11-22T11:42:00.620Z,99.99
2022-11-22T11:43:01.233Z,99.99
2022-11-22T11:44:02.157Z,99.99
2022-11-22T11:45:02.618Z,99.99
2022-11-22T11:46:03.108Z,99.99
2022-11-22T11:47:03.931Z,99.99
2022-11-22T11:48:04.148Z,99.99
2022-11-22T11:49:04.337Z,99.99
2022-11-22T11:50:05.554Z,99.99
2022-11-22T11:51:06.035Z,99.99
2022-11-22T11:52:06.955Z,99.99
2022-11-22T11:53:07.447Z,99.99
2022-11-22T11:54:07.637Z,99.99
2022-11-22T11:55:08.292Z,99.99
2022-11-22T11:56:09.271Z,99.99
2022-11-22T11:57:10.570Z,99.99
2022-11-22T11:58:14.680Z,99.99
2022-11-22T11:59:11.637Z,99.99
2022-11-22T12:00:12.843Z,99.99
2022-11-22T12:01:13.356Z,99.99
2022-11-22T12:02:14.344Z,99.99
2022-11-22T12:03:14.428Z,99.99
2022-11-22T12:04:15.355Z,99.99
2022-11-22T12:05:15.989Z,99.99
2022-11-22T12:06:16.497Z,99.99
2022-11-22T12:07:17.577Z,99.99
2022-11-22T12:08:18.291Z,99.99
2022-11-22T12:09:19.214Z,99.99
2022-11-22T12:10:20.135Z,99.99
2022-11-22T12:11:20.344Z,99.99
2022-11-22T12:12:20.231Z,99.99
2022-11-22T12:13:20.722Z,99.99
2022-11-22T12:15:09.469Z,99.99
2022-11-22T12:15:28.907Z,99.99
2022-11-22T12:16:28.941Z,99.99
2022-11-22T12:17:29.342Z,99.99
2022-11-22T12:18:30.587Z,99.99
2022-11-22T12:19:31.528Z,99.99
2022-11-22T12:20:31.453Z,99.99
2022-11-22T12:21:31.782Z,99.99
2022-11-22T12:22:53.555Z,99.99
2022-11-22T12:23:33.188Z,99.99
2022-11-22T12:25:30.784Z,99.99
2022-11-22T12:25:50.574Z,99.99
2022-11-22T12:26:51.133Z,99.99
2022-11-22T12:27:51.637Z,99.99
2022-11-22T12:28:52.221Z,99.99
2022-11-22T12:29:53.148Z,99.99
2022-11-22T12:30:53.586Z,99.99
2022-11-22T12:31:54.142Z,99.99
2022-11-22T12:32:55.023Z,99.99
2022-11-22T12:33:54.950Z,99.99
2022-11-22T12:34:55.936Z,99.99
2022-11-22T12:35:56.154Z,99.99
2022-11-22T12:36:56.425Z,99.99
2022-11-22T12:37:57.167Z,99.99
2022-11-22T12:38:58.200Z,99.99
2022-11-22T12:39:58.764Z,99.99
2022-11-22T12:40:59.724Z,99.99
2022-11-22T12:41:59.930Z,99.99
2022-11-22T12:43:00.934Z,99.99
2022-11-22T12:44:00.877Z,99.99
2022-11-22T12:45:01.923Z,99.99
2022-11-22T12:46:02.282Z,99.99
2022-11-22T12:47:02.203Z,99.99
2022-11-22T12:48:03.094Z,99.99
2022-11-22T12:49:03.166Z,99.99
2022-11-22T12:50:04.196Z,99.99
2022-11-22T12:51:05.255Z,99.99
2022-11-22T12:52:05.158Z,99.99
2022-11-22T12:53:05.693Z,99.99
2022-11-22T12:54:06.632Z,99.99
2022-11-22T12:55:06.844Z,99.99
2022-11-22T12:56:07.351Z,99.99
2022-11-22T12:57:08.015Z,99.99
2022-11-22T12:58:08.216Z,99.99
2022-11-22T12:59:09.170Z,99.99
2022-11-22T13:00:10.120Z,99.99
2022-11-22T13:01:11.853Z,99.99
2022-11-22T13:02:11.675Z,99.99
2022-11-22T13:03:11.872Z,99.99
2022-11-22T13:04:13.124Z,99.99
2022-11-22T13:05:13.471Z,99.99